createdAt,value
2019-03-22T00:01:28.112Z,86.10
2019-03-22T00:03:54.131Z,86.30
2019-03-22T00:06:20.142Z,86.80
2019-03-22T00:08:46.439Z,87.20
2019-03-22T00:11:12.444Z,87.00
2019-03-22T00:13:38.511Z,86.50
2019-03-22T00:16:04.517Z,86.10
2019-03-22T00:18:30.532Z,87.10
2019-03-22T00:20:56.540Z,87.80
2019-03-22T00:23:22.563Z,89.20
2019-03-22T00:25:48.817Z,90.00
2019-03-22T00:28:15.142Z,90.30
2019-03-22T00:30:41.162Z,90.50
2019-03-22T00:33:07.167Z,90.90
2019-03-22T00:35:33.182Z,90.80
2019-03-22T00:37:59.450Z,90.90
2019-03-22T00:40:25.474Z,90.60
2019-03-22T00:42:51.495Z,90.80
2019-03-22T00:45:17.514Z,90.00
2019-03-22T00:47:43.850Z,88.60
2019-03-22T00:50:11.889Z,87.90
2019-03-22T00:52:37.899Z,88.00
2019-03-22T00:55:05.308Z,88.40
2019-03-22T00:57:31.644Z,88.90
2019-03-22T00:59:57.666Z,89.20
2019-03-22T01:02:23.718Z,88.90
2019-03-22T01:04:50.036Z,89.50
2019-03-22T01:07:16.146Z,89.10
2019-03-22T01:09:42.475Z,86.10
2019-03-22T01:12:08.492Z,84.60
2019-03-22T01:14:34.515Z,85.20
2019-03-22T01:17:00.530Z,86.00
2019-03-22T01:19:26.896Z,87.60
2019-03-22T01:21:52.894Z,90.00
2019-03-22T01:24:19.069Z,90.00
2019-03-22T01:26:45.109Z,90.70
2019-03-22T01:29:11.308Z,91.00
2019-03-22T01:31:37.328Z,91.80
2019-03-22T01:34:03.642Z,92.60
2019-03-22T01:36:29.662Z,91.80
2019-03-22T01:38:55.678Z,90.20
2019-03-22T01:41:21.699Z,89.90
2019-03-22T01:43:47.703Z,91.80
2019-03-22T01:46:13.773Z,92.30
2019-03-22T01:48:39.845Z,92.70
2019-03-22T01:51:05.865Z,94.10
2019-03-22T01:53:31.915Z,93.40
2019-03-22T01:55:57.942Z,94.40
2019-03-22T01:58:23.962Z,94.30
2019-03-22T02:00:49.990Z,95.00
2019-03-22T02:03:16.013Z,95.20
2019-03-22T02:05:42.219Z,94.80
2019-03-22T02:08:08.234Z,95.10
2019-03-22T02:10:34.250Z,95.60
2019-03-22T02:13:00.275Z,96.20
2019-03-22T02:15:26.288Z,97.00
2019-03-22T02:17:52.310Z,97.80
2019-03-22T02:20:18.306Z,98.70
2019-03-22T02:22:44.435Z,99.30
2019-03-22T02:25:10.846Z,99.20
2019-03-22T02:27:36.879Z,98.90
2019-03-22T02:30:05.696Z,98.90
2019-03-22T02:32:31.719Z,99.40
2019-03-22T02:34:57.720Z,99.30
2019-03-22T02:37:23.759Z,98.80
2019-03-22T02:39:50.074Z,98.50
2019-03-22T02:42:16.399Z,99.00
2019-03-22T02:44:42.424Z,99.40
2019-03-22T02:47:08.435Z,99.20
2019-03-22T02:49:34.782Z,99.30
2019-03-22T02:52:00.790Z,98.20
2019-03-22T02:54:54.991Z,97.90
2019-03-22T02:57:20.995Z,97.80
2019-03-22T02:59:46.995Z,98.10
2019-03-22T03:02:12.979Z,98.60
2019-03-22T03:04:38.978Z,99.20
2019-03-22T03:07:05.079Z,99.90
2019-03-22T03:09:31.364Z,99.90
2019-03-22T03:11:57.379Z,99.90
2019-03-22T03:14:23.690Z,99.90
2019-03-22T03:16:49.673Z,99.70
2019-03-22T03:19:15.948Z,99.30
2019-03-22T03:21:41.929Z,99.10
2019-03-22T03:24:07.949Z,99.40
2019-03-22T03:26:34.207Z,99.80
2019-03-22T03:29:00.470Z,99.90
2019-03-22T03:31:26.530Z,99.90
2019-03-22T03:33:52.796Z,99.50
2019-03-22T03:36:19.024Z,99.00
2019-03-22T03:38:45.177Z,98.90
2019-03-22T03:41:11.168Z,99.00
2019-03-22T03:43:37.162Z,99.20
2019-03-22T03:46:03.426Z,99.60
2019-03-22T03:48:29.414Z,99.60
2019-03-22T03:50:55.399Z,99.40
2019-03-22T03:53:21.395Z,99.40
2019-03-22T03:55:47.835Z,99.70
2019-03-22T03:58:13.843Z,99.90
2019-03-22T04:00:39.853Z,99.90
2019-03-22T04:03:05.838Z,99.90
2019-03-22T04:05:31.837Z,99.90
2019-03-22T04:07:57.833Z,99.90
2019-03-22T04:10:23.822Z,99.90
2019-03-22T04:12:49.819Z,99.90
2019-03-22T04:15:16.250Z,99.90
2019-03-22T04:17:42.249Z,99.90
2019-03-22T04:20:08.609Z,99.90
2019-03-22T04:22:36.340Z,99.90
2019-03-22T04:25:04.579Z,99.90
2019-03-22T04:27:30.860Z,99.90
2019-03-22T04:29:56.850Z,99.90
2019-03-22T04:32:22.839Z,99.90
2019-03-22T04:34:49.139Z,99.90
2019-03-22T04:37:15.179Z,99.90
2019-03-22T04:39:41.648Z,99.90
2019-03-22T04:42:07.656Z,99.90
2019-03-22T04:44:33.955Z,99.90
2019-03-22T04:47:00.563Z,99.90
2019-03-22T04:49:27.763Z,99.90
2019-03-22T04:51:54.491Z,99.90
2019-03-22T04:54:22.274Z,99.90
2019-03-22T04:56:50.780Z,99.90
2019-03-22T04:59:19.372Z,99.90
2019-03-22T05:01:48.470Z,99.90
2019-03-22T05:04:14.672Z,99.90
2019-03-22T05:06:41.761Z,99.90
2019-03-22T05:09:09.451Z,99.90
2019-03-22T05:11:35.656Z,99.90
2019-03-22T05:14:03.250Z,99.90
2019-03-22T05:16:30.131Z,99.90
2019-03-22T05:18:58.840Z,99.90
2019-03-22T05:21:26.136Z,99.90
2019-03-22T05:23:54.949Z,99.90
2019-03-22T05:26:23.847Z,99.90
2019-03-22T05:28:50.027Z,99.90
2019-03-22T05:31:22.633Z,99.90
2019-03-22T05:33:48.620Z,99.90
2019-03-22T05:36:14.882Z,99.90
2019-03-22T05:38:41.199Z,99.90
2019-03-22T05:41:07.431Z,99.90
2019-03-22T05:43:33.417Z,99.90
2019-03-22T05:45:59.708Z,99.90
2019-03-22T05:48:25.703Z,99.90
2019-03-22T05:50:51.711Z,99.90
2019-03-22T05:53:17.701Z,99.90
2019-03-22T05:55:43.704Z,99.90
2019-03-22T05:58:09.696Z,92.10
2019-03-22T06:00:35.827Z,78.60
2019-03-22T06:03:01.820Z,75.60
2019-03-22T06:05:27.820Z,71.00
2019-03-22T06:07:54.103Z,67.50
2019-03-22T06:10:20.146Z,65.40
2019-03-22T06:12:46.160Z,65.00
2019-03-22T06:15:12.487Z,63.10
2019-03-22T06:17:38.691Z,61.70
2019-03-22T06:20:05.605Z,61.00
2019-03-22T06:22:31.598Z,59.30
2019-03-22T06:24:57.611Z,58.40
2019-03-22T06:27:23.635Z,57.40
2019-03-22T06:29:54.443Z,56.50
2019-03-22T06:32:17.839Z,56.00
2019-03-22T06:34:44.163Z,54.50
2019-03-22T06:37:10.364Z,52.70
2019-03-22T06:39:36.363Z,51.90
2019-03-22T06:42:03.118Z,51.50
2019-03-22T06:44:29.243Z,50.00
2019-03-22T06:46:55.516Z,46.40
2019-03-22T06:49:21.531Z,43.80
2019-03-22T06:51:47.570Z,42.90
2019-03-22T06:54:13.556Z,43.90
2019-03-22T06:56:39.814Z,43.90
2019-03-22T06:59:05.826Z,43.10
2019-03-22T07:01:31.997Z,42.70
2019-03-22T07:03:57.983Z,43.00
2019-03-22T07:06:23.995Z,41.60
2019-03-22T07:08:49.979Z,39.30
2019-03-22T07:11:16.272Z,37.10
2019-03-22T07:13:42.259Z,35.30
2019-03-22T07:16:08.466Z,33.90
2019-03-22T07:18:34.749Z,33.80
2019-03-22T07:21:00.758Z,32.80
2019-03-22T07:23:27.007Z,32.50
2019-03-22T07:25:53.343Z,32.40
2019-03-22T07:28:19.359Z,31.50
2019-03-22T07:30:45.356Z,31.50
2019-03-22T07:33:11.614Z,30.80
2019-03-22T07:35:37.943Z,29.70
2019-03-22T07:38:04.281Z,28.80
2019-03-22T07:40:30.283Z,27.80
2019-03-22T07:42:56.286Z,28.00
2019-03-22T07:45:22.283Z,27.60
2019-03-22T07:47:48.272Z,27.90
2019-03-22T07:50:14.382Z,27.60
2019-03-22T07:52:40.371Z,27.30
2019-03-22T07:55:06.686Z,27.30
2019-03-22T07:57:32.991Z,27.80
2019-03-22T07:59:58.998Z,28.30
2019-03-22T08:02:25.737Z,28.20
2019-03-22T08:04:52.206Z,28.20
2019-03-22T08:07:18.517Z,27.00
2019-03-22T08:09:44.537Z,27.00
2019-03-22T08:12:10.899Z,26.30
2019-03-22T08:14:36.871Z,26.30
2019-03-22T08:17:02.886Z,27.00
2019-03-22T08:19:28.869Z,27.00
2019-03-22T08:21:54.875Z,26.00
2019-03-22T08:24:21.192Z,27.40
2019-03-22T08:26:47.195Z,26.70
2019-03-22T08:29:13.192Z,26.40
2019-03-22T08:31:39.249Z,26.10
2019-03-22T08:34:05.266Z,25.80
2019-03-22T08:36:31.522Z,25.50
2019-03-22T08:38:57.554Z,26.00
2019-03-22T08:41:24.124Z,25.90
2019-03-22T08:43:50.283Z,26.40
2019-03-22T08:46:16.653Z,27.10
2019-03-22T08:48:42.660Z,26.90
2019-03-22T08:51:08.667Z,27.70
2019-03-22T08:53:34.672Z,28.70
2019-03-22T08:56:00.763Z,28.60
2019-03-22T08:58:27.072Z,29.70
2019-03-22T09:00:57.805Z,29.70
2019-03-22T09:03:20.964Z,29.60
2019-03-22T09:05:46.985Z,30.40
2019-03-22T09:08:14.855Z,31.00
2019-03-22T09:10:40.909Z,32.00
2019-03-22T09:13:07.075Z,32.50
2019-03-22T09:15:41.212Z,33.00
2019-03-22T09:18:00.989Z,32.00
2019-03-22T09:20:27.035Z,32.70
2019-03-22T09:22:53.674Z,31.60
2019-03-22T09:25:19.698Z,31.80
2019-03-22T09:27:45.807Z,31.20
2019-03-22T09:30:13.414Z,31.40
2019-03-22T09:32:39.478Z,32.30
2019-03-22T09:35:05.811Z,31.80
2019-03-22T09:37:31.920Z,31.00
2019-03-22T09:39:58.004Z,30.40
2019-03-22T09:42:24.417Z,31.20
2019-03-22T09:44:50.460Z,31.80
2019-03-22T09:47:16.819Z,32.70
2019-03-22T09:49:43.113Z,31.30
2019-03-22T09:52:09.226Z,30.40
2019-03-22T09:54:35.533Z,30.60
2019-03-22T09:57:01.627Z,30.00
2019-03-22T09:59:27.761Z,29.40
2019-03-22T10:01:54.148Z,29.10
2019-03-22T10:04:20.143Z,28.70
2019-03-22T10:06:46.399Z,29.10
2019-03-22T10:09:12.426Z,27.30
2019-03-22T10:11:38.416Z,27.90
2019-03-22T10:14:04.683Z,28.20
2019-03-22T10:16:31.011Z,27.80
2019-03-22T10:18:56.995Z,27.60
2019-03-22T10:21:23.181Z,28.10
2019-03-22T10:23:49.228Z,28.70
2019-03-22T10:26:15.623Z,28.80
2019-03-22T10:28:41.959Z,28.50
2019-03-22T10:31:08.021Z,27.60
2019-03-22T10:33:34.113Z,28.60
2019-03-22T10:36:00.187Z,28.20
2019-03-22T10:38:31.805Z,27.90
2019-03-22T10:40:54.121Z,28.40
2019-03-22T10:43:21.898Z,28.70
2019-03-22T10:45:47.894Z,29.00
2019-03-22T10:48:14.149Z,29.30
2019-03-22T10:50:40.226Z,29.80
2019-03-22T10:53:06.245Z,30.40
2019-03-22T10:55:35.360Z,30.10
2019-03-22T10:58:00.500Z,30.20
2019-03-22T11:00:26.483Z,30.50
2019-03-22T11:02:52.496Z,30.70
2019-03-22T11:05:18.495Z,30.80
2019-03-22T11:07:44.792Z,30.70
2019-03-22T11:10:13.558Z,31.00
2019-03-22T11:12:39.896Z,31.70
2019-03-22T11:15:08.803Z,30.90
2019-03-22T11:17:35.236Z,30.30
2019-03-22T11:20:03.647Z,30.00
2019-03-22T11:22:29.947Z,30.70
2019-03-22T11:24:56.381Z,31.00
2019-03-22T11:27:22.464Z,31.10
2019-03-22T11:29:48.551Z,31.20
2019-03-22T11:32:14.889Z,31.40
2019-03-22T11:34:40.885Z,31.10
2019-03-22T11:37:07.795Z,32.90
2019-03-22T11:39:34.574Z,32.80
2019-03-22T11:42:00.567Z,31.90
2019-03-22T11:44:26.829Z,32.90
2019-03-22T11:46:53.079Z,31.70
2019-03-22T11:49:19.083Z,32.00
2019-03-22T11:51:45.071Z,32.90
2019-03-22T11:54:11.106Z,33.50
2019-03-22T11:56:37.083Z,33.40
2019-03-22T11:59:03.079Z,31.40
2019-03-22T12:01:29.231Z,30.90
2019-03-22T12:03:55.222Z,31.00
2019-03-22T12:06:21.455Z,31.30
2019-03-22T12:08:49.360Z,30.40
2019-03-22T12:11:15.346Z,29.80
2019-03-22T12:13:41.335Z,29.90
2019-03-22T12:16:07.355Z,30.00
2019-03-22T12:18:33.369Z,30.10
2019-03-22T12:20:59.386Z,29.00
2019-03-22T12:23:25.677Z,29.70
2019-03-22T12:25:51.683Z,30.40
2019-03-22T12:28:18.080Z,29.40
2019-03-22T12:30:44.562Z,29.30
2019-03-22T12:33:10.585Z,29.40
2019-03-22T12:35:36.980Z,30.00
2019-03-22T12:38:02.945Z,30.30
2019-03-22T12:40:29.279Z,29.20
2019-03-22T12:42:56.605Z,29.30
2019-03-22T12:45:27.466Z,29.30
2019-03-22T12:47:53.676Z,29.30
2019-03-22T12:50:20.374Z,30.50
2019-03-22T12:52:46.359Z,31.50
2019-03-22T12:55:13.105Z,31.70
2019-03-22T12:57:39.127Z,30.90
2019-03-22T13:00:08.920Z,31.60
2019-03-22T13:02:42.028Z,30.50
2019-03-22T13:05:05.522Z,30.50
2019-03-22T13:07:31.835Z,31.30
2019-03-22T13:09:57.823Z,31.70
2019-03-22T13:12:23.834Z,32.10
2019-03-22T13:14:49.845Z,32.90
2019-03-22T13:17:15.871Z,32.60
2019-03-22T13:19:41.858Z,32.50
2019-03-22T13:22:08.191Z,33.10
2019-03-22T13:24:34.188Z,32.20
2019-03-22T13:27:00.202Z,32.10
2019-03-22T13:29:26.463Z,32.80
2019-03-22T13:31:52.730Z,33.40
2019-03-22T13:34:18.728Z,34.00
2019-03-22T13:36:45.154Z,33.90
2019-03-22T13:39:11.168Z,34.50
2019-03-22T13:41:37.179Z,34.10
2019-03-22T13:44:03.215Z,34.30
2019-03-22T13:46:29.272Z,34.60
2019-03-22T13:48:55.575Z,34.70
2019-03-22T13:51:25.026Z,35.40
2019-03-22T13:53:51.306Z,34.60
2019-03-22T13:56:17.642Z,34.90
2019-03-22T13:58:43.869Z,35.20
2019-03-22T14:01:12.683Z,35.10
2019-03-22T14:03:38.768Z,35.00
2019-03-22T14:06:04.766Z,34.50
2019-03-22T14:08:30.757Z,34.50
2019-03-22T14:10:56.756Z,34.50
2019-03-22T14:13:23.000Z,34.60
2019-03-22T14:15:49.320Z,34.30
2019-03-22T14:18:15.556Z,34.30
2019-03-22T14:20:41.553Z,34.50
2019-03-22T14:23:07.803Z,34.10
2019-03-22T14:25:33.813Z,33.80
2019-03-22T14:27:59.814Z,33.60
2019-03-22T14:30:25.837Z,32.50
2019-03-22T14:32:52.528Z,32.60
2019-03-22T14:35:19.155Z,32.10
2019-03-22T14:37:45.152Z,32.50
2019-03-22T14:40:15.600Z,32.40
2019-03-22T14:42:39.463Z,32.20
2019-03-22T14:45:09.500Z,32.40
2019-03-22T14:47:35.838Z,32.40
2019-03-22T14:50:03.901Z,32.50
2019-03-22T14:52:30.233Z,32.70
2019-03-22T14:54:56.223Z,32.90
2019-03-22T14:57:22.234Z,32.80
2019-03-22T14:59:58.391Z,32.90
2019-03-22T15:02:16.135Z,32.70
2019-03-22T15:04:42.119Z,33.20
2019-03-22T15:07:19.274Z,34.20
2019-03-22T15:09:36.599Z,33.20
2019-03-22T15:12:03.539Z,33.60
2019-03-22T15:14:31.744Z,33.80
2019-03-22T15:17:05.425Z,33.60
2019-03-22T15:19:42.645Z,33.50
2019-03-22T15:22:22.763Z,33.60
2019-03-22T15:25:05.548Z,33.90
2019-03-22T15:27:39.732Z,34.30
2019-03-22T15:30:26.831Z,34.50
2019-03-22T15:32:54.716Z,34.20
2019-03-22T15:35:31.323Z,34.10
2019-03-22T15:38:05.170Z,34.30
2019-03-22T15:40:31.501Z,33.00
2019-03-22T15:42:57.495Z,33.10
2019-03-22T15:45:23.510Z,33.30
2019-03-22T15:47:49.508Z,33.30
2019-03-22T15:50:15.812Z,33.70
2019-03-22T15:52:41.799Z,34.00
2019-03-22T15:55:08.011Z,34.10
2019-03-22T15:57:34.300Z,34.20
2019-03-22T16:00:00.619Z,34.50
2019-03-22T16:02:26.623Z,34.60
2019-03-22T16:04:52.834Z,34.20
2019-03-22T16:07:18.839Z,34.10
2019-03-22T16:09:44.870Z,34.30
2019-03-22T16:12:11.271Z,34.40
2019-03-22T16:14:37.291Z,34.70
2019-03-22T16:17:03.307Z,35.00
2019-03-22T16:19:29.338Z,35.30
2019-03-22T16:21:55.363Z,34.40
2019-03-22T16:24:21.458Z,34.30
2019-03-22T16:26:47.462Z,34.30
2019-03-22T16:29:13.472Z,34.10
2019-03-22T16:31:39.474Z,33.80
2019-03-22T16:34:05.481Z,34.00
2019-03-22T16:36:31.491Z,34.40
2019-03-22T16:38:57.495Z,34.30
2019-03-22T16:41:23.503Z,34.30
2019-03-22T16:43:49.901Z,34.50
2019-03-22T16:46:15.871Z,34.70
2019-03-22T16:48:41.912Z,34.70
2019-03-22T16:51:07.915Z,34.90
2019-03-22T16:53:33.909Z,34.90
2019-03-22T16:55:59.982Z,35.10
2019-03-22T16:58:25.975Z,35.40
2019-03-22T17:00:52.038Z,35.40
2019-03-22T17:03:18.046Z,35.40
2019-03-22T17:05:44.076Z,35.70
2019-03-22T17:08:10.283Z,35.70
2019-03-22T17:10:36.281Z,36.10
2019-03-22T17:13:02.576Z,36.30
2019-03-22T17:15:28.598Z,36.10
2019-03-22T17:17:54.583Z,36.40
2019-03-22T17:20:20.580Z,36.40
2019-03-22T17:22:46.872Z,36.40
2019-03-22T17:25:12.871Z,36.70
2019-03-22T17:27:38.935Z,37.20
2019-03-22T17:30:06.791Z,36.50
2019-03-22T17:32:32.795Z,36.70
2019-03-22T17:34:58.801Z,36.70
2019-03-22T17:37:24.991Z,37.10
2019-03-22T17:39:50.996Z,37.90
2019-03-22T17:42:17.319Z,38.10
2019-03-22T17:44:43.356Z,39.10
2019-03-22T17:47:09.343Z,39.30
2019-03-22T17:49:35.602Z,39.70
2019-03-22T17:52:01.621Z,40.10
2019-03-22T17:54:27.864Z,40.80
2019-03-22T17:56:53.855Z,40.60
2019-03-22T17:59:19.836Z,40.90
2019-03-22T18:01:46.144Z,40.60
2019-03-22T18:04:12.150Z,40.90
2019-03-22T18:06:38.610Z,41.60
2019-03-22T18:09:04.621Z,43.00
2019-03-22T18:11:30.614Z,43.40
2019-03-22T18:13:56.711Z,43.00
2019-03-22T18:16:23.082Z,43.20
2019-03-22T18:18:49.083Z,43.90
2019-03-22T18:21:15.066Z,43.60
2019-03-22T18:23:41.096Z,44.00
2019-03-22T18:26:07.116Z,44.10
2019-03-22T18:28:33.130Z,44.00
2019-03-22T18:30:59.113Z,45.20
2019-03-22T18:33:25.148Z,45.50
2019-03-22T18:35:51.144Z,45.30
2019-03-22T18:38:17.131Z,46.00
2019-03-22T18:40:43.143Z,46.60
2019-03-22T18:43:09.472Z,46.90
2019-03-22T18:45:35.690Z,46.30
2019-03-22T18:48:01.710Z,46.40
2019-03-22T18:50:27.948Z,46.40
2019-03-22T18:52:53.943Z,46.30
2019-03-22T18:55:21.901Z,46.40
2019-03-22T18:57:48.175Z,46.70
2019-03-22T19:00:15.589Z,47.60
2019-03-22T19:02:41.574Z,48.80
2019-03-22T19:05:07.983Z,48.50
2019-03-22T19:07:34.207Z,49.20
2019-03-22T19:10:00.215Z,48.90
2019-03-22T19:12:26.209Z,49.10
2019-03-22T19:14:52.204Z,49.50
2019-03-22T19:17:18.615Z,50.00
2019-03-22T19:19:44.946Z,50.10
2019-03-22T19:22:10.935Z,50.10
2019-03-22T19:24:37.216Z,50.40
2019-03-22T19:27:03.324Z,50.70
2019-03-22T19:29:32.423Z,51.30
2019-03-22T19:32:00.313Z,51.90
2019-03-22T19:34:26.480Z,52.00
2019-03-22T19:36:52.469Z,52.50
2019-03-22T19:39:18.473Z,51.60
2019-03-22T19:41:44.463Z,51.90
2019-03-22T19:44:10.775Z,52.50
2019-03-22T19:46:36.766Z,53.00
2019-03-22T19:49:02.763Z,53.10
2019-03-22T19:51:28.764Z,53.30
2019-03-22T19:53:54.772Z,52.70
2019-03-22T19:56:20.766Z,52.90
2019-03-22T19:58:46.767Z,53.70
2019-03-22T20:01:12.760Z,54.60
2019-03-22T20:03:38.768Z,54.70
2019-03-22T20:06:04.760Z,54.60
2019-03-22T20:08:30.760Z,55.20
2019-03-22T20:10:56.747Z,54.80
2019-03-22T20:13:22.765Z,53.90
2019-03-22T20:15:48.750Z,53.80
2019-03-22T20:18:14.739Z,54.40
2019-03-22T20:20:40.730Z,55.20
2019-03-22T20:23:07.028Z,55.20
2019-03-22T20:25:33.092Z,55.60
2019-03-22T20:27:59.087Z,55.30
2019-03-22T20:30:25.079Z,55.20
2019-03-22T20:32:51.068Z,55.30
2019-03-22T20:35:17.268Z,55.30
2019-03-22T20:37:43.272Z,54.70
2019-03-22T20:40:17.016Z,55.10
2019-03-22T20:42:43.002Z,55.50
2019-03-22T20:45:09.408Z,55.60
2019-03-22T20:47:35.508Z,56.90
2019-03-22T20:50:02.904Z,57.50
2019-03-22T20:52:28.899Z,57.80
2019-03-22T20:54:54.911Z,56.50
2019-03-22T20:57:20.955Z,57.50
2019-03-22T20:59:46.959Z,57.60
2019-03-22T21:02:12.938Z,58.20
2019-03-22T21:04:39.213Z,58.70
2019-03-22T21:07:05.205Z,59.40
2019-03-22T21:09:31.211Z,59.00
2019-03-22T21:11:57.437Z,59.30
2019-03-22T21:14:23.445Z,59.70
2019-03-22T21:16:49.679Z,60.40
2019-03-22T21:19:15.682Z,60.50
2019-03-22T21:21:41.927Z,60.40
2019-03-22T21:24:08.864Z,60.90
2019-03-22T21:26:34.940Z,61.70
2019-03-22T21:29:00.951Z,61.70
2019-03-22T21:31:26.949Z,62.10
2019-03-22T21:33:52.974Z,62.60
2019-03-22T21:36:19.059Z,62.50
2019-03-22T21:38:45.115Z,63.00
2019-03-22T21:41:11.115Z,63.60
2019-03-22T21:43:37.103Z,63.90
2019-03-22T21:46:03.099Z,63.90
2019-03-22T21:48:29.423Z,64.40
2019-03-22T21:50:55.417Z,64.50
2019-03-22T21:53:21.400Z,64.70
2019-03-22T21:55:47.814Z,64.50
2019-03-22T21:58:13.808Z,65.40
2019-03-22T22:00:39.818Z,66.70
2019-03-22T22:03:05.809Z,67.00
2019-03-22T22:05:31.908Z,67.20
2019-03-22T22:07:57.907Z,67.70
2019-03-22T22:10:23.914Z,67.90
2019-03-22T22:12:49.902Z,68.80
2019-03-22T22:15:15.911Z,71.80
2019-03-22T22:17:41.903Z,72.40
2019-03-22T22:20:08.912Z,71.60
2019-03-22T22:22:34.898Z,71.30
2019-03-22T22:25:01.019Z,70.90
2019-03-22T22:27:27.018Z,70.90
2019-03-22T22:29:53.276Z,71.40
2019-03-22T22:32:19.579Z,71.30
2019-03-22T22:34:45.571Z,72.20
2019-03-22T22:37:11.790Z,72.60
2019-03-22T22:39:37.790Z,73.20
2019-03-22T22:42:04.018Z,73.50
2019-03-22T22:44:30.241Z,73.70
2019-03-22T22:46:56.465Z,73.60
2019-03-22T22:49:22.696Z,73.80
2019-03-22T22:51:48.927Z,73.40
2019-03-22T22:54:15.154Z,74.40
2019-03-22T22:56:41.138Z,75.10
2019-03-22T22:59:07.152Z,76.70
2019-03-22T23:01:33.145Z,76.80
2019-03-22T23:03:59.148Z,77.30
2019-03-22T23:06:25.137Z,77.80
2019-03-22T23:08:51.144Z,78.00
2019-03-22T23:11:17.151Z,77.30
2019-03-22T23:13:43.174Z,76.50
2019-03-22T23:16:09.174Z,76.90
2019-03-22T23:18:35.186Z,77.80
2019-03-22T23:21:01.186Z,79.30
2019-03-22T23:23:27.178Z,79.70
2019-03-22T23:25:53.179Z,80.00
2019-03-22T23:28:19.188Z,80.60
2019-03-22T23:30:45.179Z,81.30
2019-03-22T23:33:11.178Z,82.60
2019-03-22T23:35:37.460Z,83.10
2019-03-22T23:38:03.471Z,83.70
2019-03-22T23:40:29.710Z,84.70
2019-03-22T23:42:55.724Z,86.10
2019-03-22T23:45:21.720Z,87.90
2019-03-22T23:47:47.705Z,88.40
2019-03-22T23:50:13.716Z,88.30
2019-03-22T23:52:39.708Z,89.00
2019-03-22T23:55:06.001Z,88.30
2019-03-22T23:57:31.993Z,87.60
2019-03-22T23:59:57.999Z,87.90
